O.t. Ideaal — PBHH — position and weather

sailwx.info

Track history (hours):
 
Tides and Currents Weather Stations Pressure Air Temp Water Temp Dewpoint Dewpoint Depression Visibility Wind Speed Wind Dir Waves Ship Positions

O.t. Ideaal

Last reported at 2017-Oct-22 04:18 UTC. Time now 2017-Oct-22 15:41 UTC.
Position N 38°20' W 010°01'.

Length 89 m; draft 4.4 m.

Type: Cargo ship. MMSI: 244796000.

Date/timePositionNaut miles runAvg speedWind from/ knotsBaromVisibWave heightAir tempDewpointWater temp
2017-Oct-22 04:18N 38°20' W 010°01'411.2
2017-Oct-22 04:00N 38°23' W 010°02'511.1
2017-Oct-22 03:31N 38°28' W 010°04'611.3
2017-Oct-22 03:00N 38°34' W 010°06'611.2
2017-Oct-22 02:30N 38°39' W 010°07'611.4
2017-Oct-22 02:00N 38°45' W 010°08'611.4
2017-Oct-22 01:30N 38°51' W 010°08'611.5
2017-Oct-22 01:00N 38°56' W 010°08'611.2
2017-Oct-22 00:30N 39°02' W 010°08'611.4
2017-Oct-22 00:00N 39°08' W 010°08'  
2017-Oct-19 04:30N 49°16' W 004°53'17 9.9
2017-Oct-19 02:47N 49°25' W 004°31'710.5
2017-Oct-19 02:09N 49°28' W 004°22'1411.6
2017-Oct-19 00:58N 49°35' W 004°03'612.6
2017-Oct-19 00:30N 49°38' W 003°56'713.1
2017-Oct-19 00:00N 49°42' W 003°47'713.6
2017-Oct-18 23:30N 49°45' W 003°38'713.7
2017-Oct-18 23:00N 49°48' W 003°29'713.5
2017-Oct-18 22:27N 49°52' W 003°19'713.2
2017-Oct-18 21:55N 49°56' W 003°09'512.8
2017-Oct-18 21:30N 49°58' W 003°02'612.0
2017-Oct-18 20:59N 50°01' W 002°53'9411.8
2017-Oct-18 13:03N 50°26' W 000°32'314.5
2017-Oct-18 12:51N 50°27' W 000°28'514.2
2017-Oct-18 12:30N 50°29' W 000°20'713.7
2017-Oct-18 12:00N 50°30' W 000°10'713.3
2017-Oct-18 11:30N 50°32' E 000°00'612.9
2017-Oct-18 11:00N 50°34' E 000°10'612.5
2017-Oct-18 10:30N 50°36' E 000°20'612.1
2017-Oct-18 10:00N 50°38' E 000°29'611.7
2017-Oct-18 09:30N 50°40' E 000°37'611.7
2017-Oct-18 09:00N 50°43' E 000°45'611.8
2017-Oct-18 08:30N 50°47' E 000°52'612.1
2017-Oct-18 07:59N 50°50' E 001°00'913.1
2017-Oct-18 07:19N 50°56' E 001°11'514.4
2017-Oct-18 06:59N 50°59' E 001°17'715.6
2017-Oct-18 06:30N 51°04' E 001°26'816.4
2017-Oct-18 06:00N 51°09' E 001°36'815.5
2017-Oct-18 05:30N 51°14' E 001°45'714.6
2017-Oct-18 05:01N 51°21' E 001°50'713.5
2017-Oct-18 04:30N 51°27' E 001°55'612.8
2017-Oct-18 04:00N 51°32' E 002°02'612.4
2017-Oct-18 03:30N 51°36' E 002°09'612.1
2017-Oct-18 03:01N 51°40' E 002°16'611.7
2017-Oct-18 02:31N 51°44' E 002°22'611.1
2017-Oct-18 02:00N 51°48' E 002°29'511.0
2017-Oct-18 01:31N 51°53' E 002°34'510.8
2017-Oct-18 01:00N 51°57' E 002°39'510.8
2017-Oct-18 00:30N 52°01' E 002°45'610.9
2017-Oct-17 23:57N 52°06' E 002°51'511.2
2017-Oct-17 23:28N 52°10' E 002°56'611.5
2017-Oct-17 22:58N 52°15' E 003°02'612.0
2017-Oct-17 22:26N 52°20' E 003°08'511.5
2017-Oct-17 22:00N 52°24' E 003°13'612.2
2017-Oct-17 21:29N 52°29' E 003°19'713.1
2017-Oct-17 20:55N 52°35' E 003°26'813.1
2017-Oct-17 20:18N 52°41' E 003°34'613.0
2017-Oct-17 19:49N 52°46' E 003°41'1712.5
2017-Oct-17 18:27N 52°59' E 004°00'145 6.9
2017-Oct-16 21:29N 55°05' E 006°02'2810.5
2017-Oct-16 18:48N 55°29' E 006°28'311.1
2017-Oct-16 18:30N 55°32' E 006°31'611.2
2017-Oct-16 18:00N 55°37' E 006°37'511.2
2017-Oct-16 17:30N 55°41' E 006°42'611.1
2017-Oct-16 17:00N 55°46' E 006°47'511.0
2017-Oct-16 16:30N 55°51' E 006°52'10410.9
2017-Oct-16 06:56N 57°17' E 008°40'510.2
2017-Oct-16 06:28N 57°19' E 008°48'610.2
2017-Oct-16 05:52N 57°22' E 008°57'410.3
2017-Oct-16 05:28N 57°24' E 009°04'510.2
2017-Oct-16 05:00N 57°26' E 009°12'36 9.8
2017-Oct-16 01:19N 57°43' E 010°12'410.0
2017-Oct-16 00:57N 57°45' E 010°18'510.1
2017-Oct-16 00:30N 57°47' E 010°26'5 9.5
2017-Oct-16 00:00N 57°48' E 010°34'5 9.0
2017-Oct-15 23:30N 57°48' E 010°43'5 9.7
2017-Oct-15 23:00N 57°47' E 010°51'610.8
2017-Oct-15 22:28N 57°43' E 010°59'611.4
2017-Oct-15 21:58N 57°39' E 011°07'511.6
2017-Oct-15 21:30N 57°35' E 011°14'612.1
2017-Oct-15 21:00N 57°31' E 011°22'611.8
2017-Oct-15 20:30N 57°26' E 011°28'612.1
2017-Oct-15 20:00N 57°20' E 011°32'612.0
2017-Oct-15 19:30N 57°15' E 011°36'612.1
2017-Oct-15 19:00N 57°09' E 011°39'612.3
2017-Oct-15 18:30N 57°03' E 011°43'611.8
2017-Oct-15 18:00N 56°58' E 011°46'611.4
2017-Oct-15 17:29N 56°52' E 011°50'811.2
2017-Oct-15 16:48N 56°45' E 011°54'412.1
2017-Oct-15 16:28N 56°41' E 011°56'3211.8
2017-Oct-15 13:45N 56°13' E 012°23'312.1
2017-Oct-15 13:30N 56°10' E 012°27'612.0
2017-Oct-15 13:00N 56°06' E 012°35'611.5
2017-Oct-15 12:30N 56°01' E 012°41'611.9
2017-Oct-15 12:00N 55°56' E 012°44'611.5
2017-Oct-15 11:30N 55°50' E 012°43'611.5
2017-Oct-15 11:00N 55°44' E 012°42'611.6
2017-Oct-15 10:31N 55°39' E 012°42'611.2
2017-Oct-15 10:00N 55°33' E 012°42'611.4
2017-Oct-15 09:30N 55°27' E 012°42'612.0
2017-Oct-15 09:00N 55°21' E 012°41'5 9.7
2017-Oct-15 08:30N 55°18' E 012°47'611.2
2017-Oct-15 08:00N 55°16' E 012°56'611.5
2017-Oct-15 07:30N 55°16' E 013°06'611.4
2017-Oct-15 07:00N 55°15' E 013°16'611.2
2017-Oct-15 06:30N 55°15' E 013°26'2711.2
2017-Oct-15 04:06N 55°14' E 014°13'310.3
2017-Oct-15 03:49N 55°15' E 014°18'411.3
2017-Oct-15 03:30N 55°18' E 014°22'611.3
2017-Oct-15 02:58N 55°23' E 014°28'511.3
2017-Oct-15 02:30N 55°26' E 014°34'611.0
2017-Oct-15 02:00N 55°29' E 014°43'1310.7
2017-Oct-15 00:48N 55°35' E 015°03'410.6
2017-Oct-15 00:25N 55°37' E 015°09'410.5
2017-Oct-15 00:00N 55°40' E 015°16'510.6
2017-Oct-14 23:30N 55°42' E 015°24'510.7
2017-Oct-14 23:00N 55°45' E 015°32'510.7
2017-Oct-14 22:30N 55°48' E 015°40'510.8
2017-Oct-14 22:00N 55°50' E 015°49'611.2
2017-Oct-14 21:30N 55°53' E 015°57'611.2
2017-Oct-14 21:00N 55°56' E 016°06'611.3
2017-Oct-14 20:30N 55°59' E 016°15'611.2
2017-Oct-14 20:00N 56°01' E 016°23'611.5
2017-Oct-14 19:30N 56°04' E 016°32'611.5
2017-Oct-14 19:00N 56°08' E 016°41'611.3
2017-Oct-14 18:29N 56°11' E 016°49'511.2
2017-Oct-14 18:00N 56°15' E 016°56'28011.0
2017-Oct-13 16:26N 59°37' E 023°03'511.2
2017-Oct-13 16:00N 59°38' E 023°13'611.1
2017-Oct-13 15:30N 59°39' E 023°23'611.8
2017-Oct-13 15:00N 59°41' E 023°34'611.4
2017-Oct-13 14:30N 59°42' E 023°46'611.4
2017-Oct-13 13:57N 59°44' E 023°58'511.5
2017-Oct-13 13:30N 59°45' E 024°07'611.8
2017-Oct-13 13:00N 59°47' E 024°19'611.5
2017-Oct-13 12:30N 59°48' E 024°30'611.5
2017-Oct-13 12:00N 59°49' E 024°41'611.8
2017-Oct-13 11:30N 59°51' E 024°52'4112.2
2017-Oct-13 08:08N 59°59' E 026°12'1 9.5
2017-Oct-13 07:59N 59°59' E 026°15'612.7
2017-Oct-13 07:30N 60°01' E 026°27'612.5
2017-Oct-13 07:00N 60°01' E 026°40'612.9
2017-Oct-13 06:30N 59°60' E 026°52'612.0
2017-Oct-13 06:00N 59°59' E 027°04'611.8
2017-Oct-13 05:30N 60°03' E 027°15'611.6
2017-Oct-13 05:00N 60°06' E 027°24'611.8
2017-Oct-13 04:30N 60°09' E 027°34'611.8
2017-Oct-13 04:00N 60°12' E 027°44'611.5
2017-Oct-13 03:30N 60°11' E 027°56'611.6
2017-Oct-13 03:00N 60°09' E 028°07'611.6
2017-Oct-13 02:30N 60°07' E 028°18'611.5
2017-Oct-13 02:00N 60°04' E 028°27'611.5
2017-Oct-13 01:30N 60°03' E 028°39'611.6
2017-Oct-13 01:00N 60°03' E 028°50'611.5
2017-Oct-13 00:30N 60°03' E 029°02'611.6
2017-Oct-13 00:00N 60°02' E 029°13'811.3
2017-Oct-12 23:19N 60°02' E 029°29'4 9.4
2017-Oct-12 22:53N 60°00' E 029°37'410.6
2017-Oct-12 22:30N 59°59' E 029°44'510.1
2017-Oct-12 22:00N 59°57' E 029°53'611.0
2017-Oct-12 21:30N 59°55' E 030°03'4 8.2
2017-Oct-12 21:00N 59°53' E 030°11'1 2.4
2017-Oct-12 20:29N 59°54' E 030°13'0 0.0
2017-Oct-12 19:59N 59°54' E 030°13'0 0.0
2017-Oct-12 19:28N 59°54' E 030°13'0 0.0
2017-Oct-12 18:55N 59°54' E 030°13'0 0.0
2017-Oct-12 18:25N 59°54' E 030°13'0 0.0
2017-Oct-12 17:58N 59°54' E 030°13'0 0.0
2017-Oct-12 17:28N 59°54' E 030°13'0 0.0
2017-Oct-12 17:00N 59°54' E 030°13'0 0.0
2017-Oct-12 16:30N 59°54' E 030°13'0 0.0
2017-Oct-12 16:00N 59°54' E 030°13'0 0.0
2017-Oct-12 15:30N 59°54' E 030°13'0 0.0
2017-Oct-12 15:00N 59°54' E 030°13'0 0.0
2017-Oct-12 14:29N 59°54' E 030°13'0 0.0
2017-Oct-12 13:59N 59°54' E 030°13'0 0.0
2017-Oct-12 13:29N 59°54' E 030°13'0 0.0
2017-Oct-12 12:59N 59°54' E 030°13'0 0.0
2017-Oct-12 12:28N 59°54' E 030°13'0 0.0
2017-Oct-12 11:55N 59°54' E 030°13'0 0.0
2017-Oct-12 11:29N 59°54' E 030°13'0 0.0
2017-Oct-12 10:58N 59°54' E 030°13'0 0.0
2017-Oct-12 10:25N 59°54' E 030°13'0 0.0
2017-Oct-12 10:00N 59°54' E 030°13'0 0.0
2017-Oct-12 09:30N 59°54' E 030°13'0 0.0
2017-Oct-12 09:00N 59°54' E 030°13'0 0.0
2017-Oct-12 08:30N 59°54' E 030°13'0 0.0
2017-Oct-12 07:56N 59°54' E 030°13'0 0.0
2017-Oct-12 07:29N 59°54' E 030°13'0 0.0
2017-Oct-12 06:56N 59°54' E 030°13'0 0.0
2017-Oct-12 06:29N 59°54' E 030°13'0 0.0
2017-Oct-12 05:59N 59°54' E 030°13'0 0.0
2017-Oct-12 05:28N 59°54' E 030°13'0 0.0
2017-Oct-12 04:58N 59°54' E 030°13'0 0.0
2017-Oct-12 04:28N 59°54' E 030°13'  
Track history (hours):
 
Tides and Currents Weather Stations Pressure Air Temp Water Temp Dewpoint Dewpoint Depression Visibility Wind Speed Wind Dir Waves Ship Positions

O.t. Ideaal

Last reported at 2017-Oct-22 04:18 UTC. Time now 2017-Oct-22 15:41 UTC.
Position N 38°20' W 010°01'.

Length 89 m; draft 4.4 m.

Type: Cargo ship. MMSI: 244796000.

Date/timePositionNaut miles runAvg speedWind from/ knotsBaromVisibWave heightAir tempDewpointWater temp
2017-Oct-22 04:18N 38°20' W 010°01'411.2
2017-Oct-22 04:00N 38°23' W 010°02'511.1
2017-Oct-22 03:31N 38°28' W 010°04'611.3
2017-Oct-22 03:00N 38°34' W 010°06'611.2
2017-Oct-22 02:30N 38°39' W 010°07'611.4
2017-Oct-22 02:00N 38°45' W 010°08'611.4
2017-Oct-22 01:30N 38°51' W 010°08'611.5
2017-Oct-22 01:00N 38°56' W 010°08'611.2
2017-Oct-22 00:30N 39°02' W 010°08'611.4
2017-Oct-22 00:00N 39°08' W 010°08'  
2017-Oct-19 04:30N 49°16' W 004°53'17 9.9
2017-Oct-19 02:47N 49°25' W 004°31'710.5
2017-Oct-19 02:09N 49°28' W 004°22'1411.6
2017-Oct-19 00:58N 49°35' W 004°03'612.6
2017-Oct-19 00:30N 49°38' W 003°56'713.1
2017-Oct-19 00:00N 49°42' W 003°47'713.6
2017-Oct-18 23:30N 49°45' W 003°38'713.7
2017-Oct-18 23:00N 49°48' W 003°29'713.5
2017-Oct-18 22:27N 49°52' W 003°19'713.2
2017-Oct-18 21:55N 49°56' W 003°09'512.8
2017-Oct-18 21:30N 49°58' W 003°02'612.0
2017-Oct-18 20:59N 50°01' W 002°53'9411.8
2017-Oct-18 13:03N 50°26' W 000°32'314.5
2017-Oct-18 12:51N 50°27' W 000°28'514.2
2017-Oct-18 12:30N 50°29' W 000°20'713.7
2017-Oct-18 12:00N 50°30' W 000°10'713.3
2017-Oct-18 11:30N 50°32' E 000°00'612.9
2017-Oct-18 11:00N 50°34' E 000°10'612.5
2017-Oct-18 10:30N 50°36' E 000°20'612.1
2017-Oct-18 10:00N 50°38' E 000°29'611.7
2017-Oct-18 09:30N 50°40' E 000°37'611.7
2017-Oct-18 09:00N 50°43' E 000°45'611.8
2017-Oct-18 08:30N 50°47' E 000°52'612.1
2017-Oct-18 07:59N 50°50' E 001°00'913.1
2017-Oct-18 07:19N 50°56' E 001°11'514.4
2017-Oct-18 06:59N 50°59' E 001°17'715.6
2017-Oct-18 06:30N 51°04' E 001°26'816.4
2017-Oct-18 06:00N 51°09' E 001°36'815.5
2017-Oct-18 05:30N 51°14' E 001°45'714.6
2017-Oct-18 05:01N 51°21' E 001°50'713.5
2017-Oct-18 04:30N 51°27' E 001°55'612.8
2017-Oct-18 04:00N 51°32' E 002°02'612.4
2017-Oct-18 03:30N 51°36' E 002°09'612.1
2017-Oct-18 03:01N 51°40' E 002°16'611.7
2017-Oct-18 02:31N 51°44' E 002°22'611.1
2017-Oct-18 02:00N 51°48' E 002°29'511.0
2017-Oct-18 01:31N 51°53' E 002°34'510.8
2017-Oct-18 01:00N 51°57' E 002°39'510.8
2017-Oct-18 00:30N 52°01' E 002°45'610.9
2017-Oct-17 23:57N 52°06' E 002°51'511.2
2017-Oct-17 23:28N 52°10' E 002°56'611.5
2017-Oct-17 22:58N 52°15' E 003°02'612.0
2017-Oct-17 22:26N 52°20' E 003°08'511.5
2017-Oct-17 22:00N 52°24' E 003°13'612.2
2017-Oct-17 21:29N 52°29' E 003°19'713.1
2017-Oct-17 20:55N 52°35' E 003°26'813.1
2017-Oct-17 20:18N 52°41' E 003°34'613.0
2017-Oct-17 19:49N 52°46' E 003°41'1712.5
2017-Oct-17 18:27N 52°59' E 004°00'145 6.9
2017-Oct-16 21:29N 55°05' E 006°02'2810.5
2017-Oct-16 18:48N 55°29' E 006°28'311.1
2017-Oct-16 18:30N 55°32' E 006°31'611.2
2017-Oct-16 18:00N 55°37' E 006°37'511.2
2017-Oct-16 17:30N 55°41' E 006°42'611.1
2017-Oct-16 17:00N 55°46' E 006°47'511.0
2017-Oct-16 16:30N 55°51' E 006°52'10410.9
2017-Oct-16 06:56N 57°17' E 008°40'510.2
2017-Oct-16 06:28N 57°19' E 008°48'610.2
2017-Oct-16 05:52N 57°22' E 008°57'410.3
2017-Oct-16 05:28N 57°24' E 009°04'510.2
2017-Oct-16 05:00N 57°26' E 009°12'36 9.8
2017-Oct-16 01:19N 57°43' E 010°12'410.0
2017-Oct-16 00:57N 57°45' E 010°18'510.1
2017-Oct-16 00:30N 57°47' E 010°26'5 9.5
2017-Oct-16 00:00N 57°48' E 010°34'5 9.0
2017-Oct-15 23:30N 57°48' E 010°43'5 9.7
2017-Oct-15 23:00N 57°47' E 010°51'610.8
2017-Oct-15 22:28N 57°43' E 010°59'611.4
2017-Oct-15 21:58N 57°39' E 011°07'511.6
2017-Oct-15 21:30N 57°35' E 011°14'612.1
2017-Oct-15 21:00N 57°31' E 011°22'611.8
2017-Oct-15 20:30N 57°26' E 011°28'612.1
2017-Oct-15 20:00N 57°20' E 011°32'612.0
2017-Oct-15 19:30N 57°15' E 011°36'612.1
2017-Oct-15 19:00N 57°09' E 011°39'612.3
2017-Oct-15 18:30N 57°03' E 011°43'611.8
2017-Oct-15 18:00N 56°58' E 011°46'611.4
2017-Oct-15 17:29N 56°52' E 011°50'811.2
2017-Oct-15 16:48N 56°45' E 011°54'412.1
2017-Oct-15 16:28N 56°41' E 011°56'3211.8
2017-Oct-15 13:45N 56°13' E 012°23'312.1
2017-Oct-15 13:30N 56°10' E 012°27'612.0
2017-Oct-15 13:00N 56°06' E 012°35'611.5
2017-Oct-15 12:30N 56°01' E 012°41'611.9
2017-Oct-15 12:00N 55°56' E 012°44'611.5
2017-Oct-15 11:30N 55°50' E 012°43'611.5
2017-Oct-15 11:00N 55°44' E 012°42'611.6
2017-Oct-15 10:31N 55°39' E 012°42'611.2
2017-Oct-15 10:00N 55°33' E 012°42'611.4
2017-Oct-15 09:30N 55°27' E 012°42'612.0
2017-Oct-15 09:00N 55°21' E 012°41'5 9.7
2017-Oct-15 08:30N 55°18' E 012°47'611.2
2017-Oct-15 08:00N 55°16' E 012°56'611.5
2017-Oct-15 07:30N 55°16' E 013°06'611.4
2017-Oct-15 07:00N 55°15' E 013°16'611.2
2017-Oct-15 06:30N 55°15' E 013°26'2711.2
2017-Oct-15 04:06N 55°14' E 014°13'310.3
2017-Oct-15 03:49N 55°15' E 014°18'411.3
2017-Oct-15 03:30N 55°18' E 014°22'611.3
2017-Oct-15 02:58N 55°23' E 014°28'511.3
2017-Oct-15 02:30N 55°26' E 014°34'611.0
2017-Oct-15 02:00N 55°29' E 014°43'1310.7
2017-Oct-15 00:48N 55°35' E 015°03'410.6
2017-Oct-15 00:25N 55°37' E 015°09'410.5
2017-Oct-15 00:00N 55°40' E 015°16'510.6
2017-Oct-14 23:30N 55°42' E 015°24'510.7
2017-Oct-14 23:00N 55°45' E 015°32'510.7
2017-Oct-14 22:30N 55°48' E 015°40'510.8
2017-Oct-14 22:00N 55°50' E 015°49'611.2
2017-Oct-14 21:30N 55°53' E 015°57'611.2
2017-Oct-14 21:00N 55°56' E 016°06'611.3
2017-Oct-14 20:30N 55°59' E 016°15'611.2
2017-Oct-14 20:00N 56°01' E 016°23'611.5
2017-Oct-14 19:30N 56°04' E 016°32'611.5
2017-Oct-14 19:00N 56°08' E 016°41'611.3
2017-Oct-14 18:29N 56°11' E 016°49'511.2
2017-Oct-14 18:00N 56°15' E 016°56'28011.0
2017-Oct-13 16:26N 59°37' E 023°03'511.2
2017-Oct-13 16:00N 59°38' E 023°13'611.1
2017-Oct-13 15:30N 59°39' E 023°23'611.8
2017-Oct-13 15:00N 59°41' E 023°34'611.4
2017-Oct-13 14:30N 59°42' E 023°46'611.4
2017-Oct-13 13:57N 59°44' E 023°58'511.5
2017-Oct-13 13:30N 59°45' E 024°07'611.8
2017-Oct-13 13:00N 59°47' E 024°19'611.5
2017-Oct-13 12:30N 59°48' E 024°30'611.5
2017-Oct-13 12:00N 59°49' E 024°41'611.8
2017-Oct-13 11:30N 59°51' E 024°52'4112.2
2017-Oct-13 08:08N 59°59' E 026°12'1 9.5
2017-Oct-13 07:59N 59°59' E 026°15'612.7
2017-Oct-13 07:30N 60°01' E 026°27'612.5
2017-Oct-13 07:00N 60°01' E 026°40'612.9
2017-Oct-13 06:30N 59°60' E 026°52'612.0
2017-Oct-13 06:00N 59°59' E 027°04'611.8
2017-Oct-13 05:30N 60°03' E 027°15'611.6
2017-Oct-13 05:00N 60°06' E 027°24'611.8
2017-Oct-13 04:30N 60°09' E 027°34'611.8
2017-Oct-13 04:00N 60°12' E 027°44'611.5
2017-Oct-13 03:30N 60°11' E 027°56'611.6
2017-Oct-13 03:00N 60°09' E 028°07'611.6
2017-Oct-13 02:30N 60°07' E 028°18'611.5
2017-Oct-13 02:00N 60°04' E 028°27'611.5
2017-Oct-13 01:30N 60°03' E 028°39'611.6
2017-Oct-13 01:00N 60°03' E 028°50'611.5
2017-Oct-13 00:30N 60°03' E 029°02'611.6
2017-Oct-13 00:00N 60°02' E 029°13'811.3
2017-Oct-12 23:19N 60°02' E 029°29'4 9.4
2017-Oct-12 22:53N 60°00' E 029°37'410.6
2017-Oct-12 22:30N 59°59' E 029°44'510.1
2017-Oct-12 22:00N 59°57' E 029°53'611.0
2017-Oct-12 21:30N 59°55' E 030°03'4 8.2
2017-Oct-12 21:00N 59°53' E 030°11'1 2.4
2017-Oct-12 20:29N 59°54' E 030°13'0 0.0
2017-Oct-12 19:59N 59°54' E 030°13'0 0.0
2017-Oct-12 19:28N 59°54' E 030°13'0 0.0
2017-Oct-12 18:55N 59°54' E 030°13'0 0.0
2017-Oct-12 18:25N 59°54' E 030°13'0 0.0
2017-Oct-12 17:58N 59°54' E 030°13'0 0.0
2017-Oct-12 17:28N 59°54' E 030°13'0 0.0
2017-Oct-12 17:00N 59°54' E 030°13'0 0.0
2017-Oct-12 16:30N 59°54' E 030°13'0 0.0
2017-Oct-12 16:00N 59°54' E 030°13'0 0.0
2017-Oct-12 15:30N 59°54' E 030°13'0 0.0
2017-Oct-12 15:00N 59°54' E 030°13'0 0.0
2017-Oct-12 14:29N 59°54' E 030°13'0 0.0
2017-Oct-12 13:59N 59°54' E 030°13'0 0.0
2017-Oct-12 13:29N 59°54' E 030°13'0 0.0
2017-Oct-12 12:59N 59°54' E 030°13'0 0.0
2017-Oct-12 12:28N 59°54' E 030°13'0 0.0
2017-Oct-12 11:55N 59°54' E 030°13'0 0.0
2017-Oct-12 11:29N 59°54' E 030°13'0 0.0
2017-Oct-12 10:58N 59°54' E 030°13'0 0.0
2017-Oct-12 10:25N 59°54' E 030°13'0 0.0
2017-Oct-12 10:00N 59°54' E 030°13'0 0.0
2017-Oct-12 09:30N 59°54' E 030°13'0 0.0
2017-Oct-12 09:00N 59°54' E 030°13'0 0.0
2017-Oct-12 08:30N 59°54' E 030°13'0 0.0
2017-Oct-12 07:56N 59°54' E 030°13'0 0.0
2017-Oct-12 07:29N 59°54' E 030°13'0 0.0
2017-Oct-12 06:56N 59°54' E 030°13'0 0.0
2017-Oct-12 06:29N 59°54' E 030°13'0 0.0
2017-Oct-12 05:59N 59°54' E 030°13'0 0.0
2017-Oct-12 05:28N 59°54' E 030°13'0 0.0
2017-Oct-12 04:58N 59°54' E 030°13'0 0.0
2017-Oct-12 04:28N 59°54' E 030°13'  

Dump ship's entire track history